sensor_id;sensor_type;location;lat;lon;timestamp;pressure;altitude;pressure_sealevel;temperature;humidity
54314;BME280;50746;52.490;13.320;2023-01-26T00:00:16;101970.0;;;1.2;100.0
54314;BME280;50746;52.490;13.320;2023-01-26T00:01:17;101960.0;;;1.1;100.0
54314;BME280;50746;52.490;13.320;2023-01-26T00:02:16;101960.0;;;1.0;100.0
54314;BME280;50746;52.490;13.320;2023-01-26T00:03:16;101960.0;;;1.3;100.0
54314;BME280;50746;52.490;13.320;2023-01-26T00:04:16;101960.0;;;1.2;100.0
54314;BME280;50746;52.490;13.320;2023-01-26T00:05:16;101960.0;;;1.1;100.0
54314;BME280;50746;52.490;13.320;2023-01-26T00:07:16;101960.0;;;1.2;100.0
54314;BME280;50746;52.490;13.320;2023-01-26T00:08:16;101960.0;;;1.3;100.0
54314;BME280;50746;52.490;13.320;2023-01-26T00:10:16;101960.0;;;1.0;100.0
54314;BME280;50746;52.490;13.320;2023-01-26T00:12:16;101960.0;;;1.1;100.0
54314;BME280;50746;52.490;13.320;2023-01-26T00:13:17;101960.0;;;0.9;100.0
54314;BME280;50746;52.490;13.320;2023-01-26T00:14:16;101960.0;;;0.8;100.0
54314;BME280;50746;52.490;13.320;2023-01-26T00:16:16;101960.0;;;0.7;100.0
54314;BME280;50746;52.490;13.320;2023-01-26T00:17:17;101960.0;;;0.8;100.0
54314;BME280;50746;52.490;13.320;2023-01-26T00:22:16;101950.0;;;0.9;100.0
54314;BME280;50746;52.490;13.320;2023-01-26T00:23:16;101950.0;;;0.8;100.0
54314;BME280;50746;52.490;13.320;2023-01-26T00:25:16;101950.0;;;0.9;100.0
54314;BME280;50746;52.490;13.320;2023-01-26T00:26:18;101950.0;;;1.0;100.0
54314;BME280;50746;52.490;13.320;2023-01-26T00:27:16;101940.0;;;1.1;100.0
54314;BME280;50746;52.490;13.320;2023-01-26T00:28:16;101940.0;;;1.2;100.0
54314;BME280;50746;52.490;13.320;2023-01-26T00:29:16;101940.0;;;1.3;100.0
54314;BME280;50746;52.490;13.320;2023-01-26T00:31:18;101930.0;;;1.4;100.0
54314;BME280;50746;52.490;13.320;2023-01-26T00:32:16;101930.0;;;1.3;100.0
54314;BME280;50746;52.490;13.320;2023-01-26T00:33:16;101930.0;;;1.4;100.0
54314;BME280;50746;52.490;13.320;2023-01-26T00:34:16;101920.0;;;1.5;100.0
54314;BME280;50746;52.490;13.320;2023-01-26T00:36:16;101920.0;;;1.4;100.0
54314;BME280;50746;52.490;13.320;2023-01-26T00:37:16;101920.0;;;1.2;100.0
54314;BME280;50746;52.490;13.320;2023-01-26T00:38:16;101920.0;;;1.1;100.0
54314;BME280;50746;52.490;13.320;2023-01-26T00:39:16;101920.0;;;1.2;100.0
54314;BME280;50746;52.490;13.320;2023-01-26T00:40:16;101920.0;;;1.1;100.0
54314;BME280;50746;52.490;13.320;2023-01-26T00:41:16;101920.0;;;1.2;100.0
54314;BME280;50746;52.490;13.320;2023-01-26T00:42:16;101920.0;;;1.0;100.0
54314;BME280;50746;52.490;13.320;2023-01-26T00:43:16;101920.0;;;0.8;100.0
54314;BME280;50746;52.490;13.320;2023-01-26T00:45:16;101920.0;;;1.1;100.0
54314;BME280;50746;52.490;13.320;2023-01-26T00:46:16;101920.0;;;1.3;100.0
54314;BME280;50746;52.490;13.320;2023-01-26T00:47:17;101920.0;;;1.1;100.0
54314;BME280;50746;52.490;13.320;2023-01-26T00:48:16;101920.0;;;0.9;100.0
54314;BME280;50746;52.490;13.320;2023-01-26T00:50:16;101920.0;;;1.0;100.0
54314;BME280;50746;52.490;13.320;2023-01-26T00:51:16;101910.0;;;0.8;100.0
54314;BME280;50746;52.490;13.320;2023-01-26T00:52:16;101910.0;;;0.9;100.0
54314;BME280;50746;52.490;13.320;2023-01-26T00:53:16;101910.0;;;1.0;100.0
54314;BME280;50746;52.490;13.320;2023-01-26T00:54:16;101910.0;;;0.9;100.0
54314;BME280;50746;52.490;13.320;2023-01-26T00:57:16;101910.0;;;1.0;100.0
54314;BME280;50746;52.490;13.320;2023-01-26T00:59:16;101910.0;;;0.9;100.0
54314;BME280;50746;52.490;13.320;2023-01-26T01:00:16;101910.0;;;0.8;100.0
54314;BME280;50746;52.490;13.320;2023-01-26T01:03:16;101910.0;;;0.7;100.0
54314;BME280;50746;52.490;13.320;2023-01-26T01:04:16;101910.0;;;0.8;100.0
54314;BME280;50746;52.490;13.320;2023-01-26T01:08:16;101910.0;;;0.7;100.0
54314;BME280;50746;52.490;13.320;2023-01-26T01:09:16;101910.0;;;0.6;100.0
54314;BME280;50746;52.490;13.320;2023-01-26T01:11:16;101900.0;;;0.7;100.0
54314;BME280;50746;52.490;13.320;2023-01-26T01:12:16;101910.0;;;0.9;100.0
54314;BME280;50746;52.490;13.320;2023-01-26T01:14:16;101900.0;;;0.8;100.0
54314;BME280;50746;52.490;13.320;2023-01-26T01:15:16;101910.0;;;1.3;100.0
54314;BME280;50746;52.490;13.320;2023-01-26T01:17:16;101900.0;;;1.0;100.0
54314;BME280;50746;52.490;13.320;2023-01-26T01:18:16;101900.0;;;0.8;100.0
54314;BME280;50746;52.490;13.320;2023-01-26T01:19:17;101890.0;;;0.7;100.0
54314;BME280;50746;52.490;13.320;2023-01-26T01:20:16;101900.0;;;1.0;100.0
54314;BME280;50746;52.490;13.320;2023-01-26T01:21:16;101900.0;;;1.3;100.0
54314;BME280;50746;52.490;13.320;2023-01-26T01:22:16;101900.0;;;1.4;100.0
54314;BME280;50746;52.490;13.320;2023-01-26T01:24:16;101900.0;;;0.9;100.0
54314;BME280;50746;52.490;13.320;2023-01-26T01:25:16;101890.0;;;0.8;100.0
54314;BME280;50746;52.490;13.320;2023-01-26T01:26:16;101890.0;;;0.6;100.0
54314;BME280;50746;52.490;13.320;2023-01-26T01:27:16;101890.0;;;1.0;100.0
54314;BME280;50746;52.490;13.320;2023-01-26T01:28:16;101890.0;;;1.2;100.0
54314;BME280;50746;52.490;13.320;2023-01-26T01:29:16;101890.0;;;1.3;100.0
54314;BME280;50746;52.490;13.320;2023-01-26T01:30:16;101890.0;;;0.9;100.0
54314;BME280;50746;52.490;13.320;2023-01-26T01:31:16;101880.0;;;0.8;100.0
54314;BME280;50746;52.490;13.320;2023-01-26T01:32:16;101880.0;;;0.7;100.0
54314;BME280;50746;52.490;13.320;2023-01-26T01:33:16;101880.0;;;0.9;100.0
54314;BME280;50746;52.490;13.320;2023-01-26T01:34:16;101880.0;;;1.1;100.0
54314;BME280;50746;52.490;13.320;2023-01-26T01:35:16;101890.0;;;1.2;100.0
54314;BME280;50746;52.490;13.320;2023-01-26T01:36:16;101890.0;;;0.8;100.0
54314;BME280;50746;52.490;13.320;2023-01-26T01:37:16;101890.0;;;1.2;100.0
54314;BME280;50746;52.490;13.320;2023-01-26T01:38:16;101890.0;;;1.3;100.0
54314;BME280;50746;52.490;13.320;2023-01-26T01:39:16;101880.0;;;1.6;100.0
54314;BME280;50746;52.490;13.320;2023-01-26T01:40:16;101880.0;;;1.4;100.0
54314;BME280;50746;52.490;13.320;2023-01-26T01:41:18;101880.0;;;1.3;100.0
54314;BME280;50746;52.490;13.320;2023-01-26T01:44:18;101870.0;;;1.2;100.0
54314;BME280;50746;52.490;13.320;2023-01-26T01:46:20;101870.0;;;1.5;100.0
54314;BME280;50746;52.490;13.320;2023-01-26T01:47:20;101880.0;;;1.6;100.0
54314;BME280;50746;52.490;13.320;2023-01-26T01:48:19;101870.0;;;1.5;100.0
54314;BME280;50746;52.490;13.320;2023-01-26T01:51:20;101870.0;;;1.4;100.0
54314;BME280;50746;52.490;13.320;2023-01-26T01:52:18;101870.0;;;1.3;100.0
54314;BME280;50746;52.490;13.320;2023-01-26T01:53:19;101880.0;;;1.2;100.0
54314;BME280;50746;52.490;13.320;2023-01-26T01:54:20;101870.0;;;0.8;100.0
54314;BME280;50746;52.490;13.320;2023-01-26T01:55:16;101870.0;;;0.9;100.0
54314;BME280;50746;52.490;13.320;2023-01-26T01:57:19;101870.0;;;0.8;100.0
54314;BME280;50746;52.490;13.320;2023-01-26T02:02:16;101870.0;;;0.7;100.0
54314;BME280;50746;52.490;13.320;2023-01-26T02:03:16;101870.0;;;0.8;100.0
54314;BME280;50746;52.490;13.320;2023-01-26T02:04:18;101860.0;;;1.1;100.0
54314;BME280;50746;52.490;13.320;2023-01-26T02:05:23;101860.0;;;1.0;100.0
54314;BME280;50746;52.490;13.320;2023-01-26T02:06:18;101860.0;;;0.9;100.0
54314;BME280;50746;52.490;13.320;2023-01-26T02:07:16;101860.0;;;0.8;100.0
54314;BME280;50746;52.490;13.320;2023-01-26T02:09:17;101860.0;;;1.0;100.0
54314;BME280;50746;52.490;13.320;2023-01-26T02:11:19;101850.0;;;1.1;100.0
54314;BME280;50746;52.490;13.320;2023-01-26T02:16:17;101850.0;;;1.0;100.0
54314;BME280;50746;52.490;13.320;2023-01-26T02:18:16;101850.0;;;0.9;100.0
54314;BME280;50746;52.490;13.320;2023-01-26T02:20:21;101850.0;;;1.0;100.0
54314;BME280;50746;52.490;13.320;2023-01-26T02:21:18;101850.0;;;1.4;100.0
54314;BME280;50746;52.490;13.320;2023-01-26T02:22:22;101840.0;;;1.1;100.0
54314;BME280;50746;52.490;13.320;2023-01-26T02:24:20;101840.0;;;0.8;100.0
54314;BME280;50746;52.490;13.320;2023-01-26T02:26:17;101840.0;;;0.7;100.0
54314;BME280;50746;52.490;13.320;2023-01-26T02:27:16;101840.0;;;0.6;100.0
54314;BME280;50746;52.490;13.320;2023-01-26T02:28:17;101840.0;;;0.7;100.0
54314;BME280;50746;52.490;13.320;2023-01-26T02:29:16;101830.0;;;1.0;100.0
54314;BME280;50746;52.490;13.320;2023-01-26T02:31:17;101830.0;;;0.6;100.0
54314;BME280;50746;52.490;13.320;2023-01-26T02:32:16;101830.0;;;0.7;100.0
54314;BME280;50746;52.490;13.320;2023-01-26T02:34:16;101820.0;;;0.8;100.0
54314;BME280;50746;52.490;13.320;2023-01-26T02:35:16;101820.0;;;0.7;100.0
54314;BME280;50746;52.490;13.320;2023-01-26T02:37:16;101820.0;;;1.3;100.0
54314;BME280;50746;52.490;13.320;2023-01-26T02:38:17;101820.0;;;1.0;100.0
54314;BME280;50746;52.490;13.320;2023-01-26T02:39:21;101810.0;;;0.8;100.0
54314;BME280;50746;52.490;13.320;2023-01-26T02:40:23;101810.0;;;0.9;100.0
54314;BME280;50746;52.490;13.320;2023-01-26T02:41:16;101810.0;;;0.6;100.0
54314;BME280;50746;52.490;13.320;2023-01-26T02:42:16;101810.0;;;0.5;100.0
54314;BME280;50746;52.490;13.320;2023-01-26T02:43:16;101810.0;;;1.2;100.0
54314;BME280;50746;52.490;13.320;2023-01-26T02:44:16;101810.0;;;0.7;100.0
54314;BME280;50746;52.490;13.320;2023-01-26T02:45:16;101810.0;;;0.6;100.0
54314;BME280;50746;52.490;13.320;2023-01-26T02:47:17;101810.0;;;0.5;100.0
54314;BME280;50746;52.490;13.320;2023-01-26T02:48:16;101810.0;;;1.2;100.0
54314;BME280;50746;52.490;13.320;2023-01-26T02:49:16;101820.0;;;0.5;100.0
54314;BME280;50746;52.490;13.320;2023-01-26T02:50:16;101810.0;;;0.4;100.0
54314;BME280;50746;52.490;13.320;2023-01-26T02:51:16;101810.0;;;0.3;100.0
54314;BME280;50746;52.490;13.320;2023-01-26T02:53:16;101810.0;;;0.2;100.0
54314;BME280;50746;52.490;13.320;2023-01-26T02:54:16;101810.0;;;0.6;100.0
54314;BME280;50746;52.490;13.320;2023-01-26T02:55:16;101810.0;;;0.3;100.0
54314;BME280;50746;52.490;13.320;2023-01-26T03:00:17;101810.0;;;0.6;100.0
54314;BME280;50746;52.490;13.320;2023-01-26T03:01:16;101810.0;;;0.4;100.0
54314;BME280;50746;52.490;13.320;2023-01-26T03:02:16;101810.0;;;0.5;100.0
54314;BME280;50746;52.490;13.320;2023-01-26T03:03:19;101810.0;;;0.6;100.0
54314;BME280;50746;52.490;13.320;2023-01-26T03:04:16;101810.0;;;0.5;100.0
54314;BME280;50746;52.490;13.320;2023-01-26T03:05:16;101810.0;;;0.9;100.0
54314;BME280;50746;52.490;13.320;2023-01-26T03:06:16;101810.0;;;1.0;100.0
54314;BME280;50746;52.490;13.320;2023-01-26T03:07:16;101810.0;;;1.1;100.0
54314;BME280;50746;52.490;13.320;2023-01-26T03:08:16;101810.0;;;0.9;100.0
54314;BME280;50746;52.490;13.320;2023-01-26T03:09:16;101810.0;;;1.0;100.0
54314;BME280;50746;52.490;13.320;2023-01-26T03:11:16;101810.0;;;0.9;100.0
54314;BME280;50746;52.490;13.320;2023-01-26T03:13:16;101810.0;;;0.7;100.0
54314;BME280;50746;52.490;13.320;2023-01-26T03:14:16;101810.0;;;0.6;100.0
54314;BME280;50746;52.490;13.320;2023-01-26T03:15:16;101810.0;;;0.7;100.0
54314;BME280;50746;52.490;13.320;2023-01-26T03:16:16;101810.0;;;0.5;100.0
54314;BME280;50746;52.490;13.320;2023-01-26T03:18:17;101810.0;;;0.4;100.0
54314;BME280;50746;52.490;13.320;2023-01-26T03:19:16;101810.0;;;1.0;100.0
54314;BME280;50746;52.490;13.320;2023-01-26T03:20:16;101810.0;;;0.6;100.0
54314;BME280;50746;52.490;13.320;2023-01-26T03:24:16;101810.0;;;0.9;100.0
54314;BME280;50746;52.490;13.320;2023-01-26T03:25:16;101810.0;;;0.5;100.0
54314;BME280;50746;52.490;13.320;2023-01-26T03:26:16;101800.0;;;0.6;100.0
54314;BME280;50746;52.490;13.320;2023-01-26T03:27:16;101800.0;;;0.9;100.0
54314;BME280;50746;52.490;13.320;2023-01-26T03:28:16;101810.0;;;0.6;100.0
54314;BME280;50746;52.490;13.320;2023-01-26T03:29:16;101800.0;;;0.9;100.0
54314;BME280;50746;52.490;13.320;2023-01-26T03:30:17;101800.0;;;0.7;100.0
54314;BME280;50746;52.490;13.320;2023-01-26T03:31:16;101800.0;;;1.1;100.0
54314;BME280;50746;52.490;13.320;2023-01-26T03:32:16;101800.0;;;1.2;100.0
54314;BME280;50746;52.490;13.320;2023-01-26T03:33:16;101800.0;;;1.3;100.0
54314;BME280;50746;52.490;13.320;2023-01-26T03:34:16;101800.0;;;1.0;100.0
54314;BME280;50746;52.490;13.320;2023-01-26T03:35:16;101790.0;;;0.8;100.0
54314;BME280;50746;52.490;13.320;2023-01-26T03:37:16;101790.0;;;1.1;100.0
54314;BME280;50746;52.490;13.320;2023-01-26T03:38:16;101790.0;;;1.3;100.0
54314;BME280;50746;52.490;13.320;2023-01-26T03:39:16;101790.0;;;1.5;100.0
54314;BME280;50746;52.490;13.320;2023-01-26T03:40:16;101790.0;;;1.2;100.0
54314;BME280;50746;52.490;13.320;2023-01-26T03:41:16;101790.0;;;1.0;100.0
54314;BME280;50746;52.490;13.320;2023-01-26T03:42:16;101790.0;;;1.2;100.0
54314;BME280;50746;52.490;13.320;2023-01-26T03:43:16;101790.0;;;1.3;100.0
54314;BME280;50746;52.490;13.320;2023-01-26T03:45:16;101780.0;;;1.4;100.0
54314;BME280;50746;52.490;13.320;2023-01-26T03:47:16;101790.0;;;1.9;100.0
54314;BME280;50746;52.490;13.320;2023-01-26T03:48:16;101780.0;;;2.1;100.0
54314;BME280;50746;52.490;13.320;2023-01-26T03:49:16;101790.0;;;1.9;100.0
54314;BME280;50746;52.490;13.320;2023-01-26T03:50:16;101790.0;;;1.4;100.0
54314;BME280;50746;52.490;13.320;2023-01-26T03:51:16;101790.0;;;1.0;100.0
54314;BME280;50746;52.490;13.320;2023-01-26T03:52:16;101790.0;;;1.4;100.0
54314;BME280;50746;52.490;13.320;2023-01-26T03:53:18;101800.0;;;0.9;100.0
54314;BME280;50746;52.490;13.320;2023-01-26T03:54:16;101800.0;;;1.1;100.0
54314;BME280;50746;52.490;13.320;2023-01-26T03:55:16;101800.0;;;1.0;100.0
54314;BME280;50746;52.490;13.320;2023-01-26T03:56:16;101800.0;;;1.2;100.0
54314;BME280;50746;52.490;13.320;2023-01-26T03:59:16;101800.0;;;1.0;100.0
54314;BME280;50746;52.490;13.320;2023-01-26T04:00:16;101800.0;;;1.1;100.0
54314;BME280;50746;52.490;13.320;2023-01-26T04:02:16;101800.0;;;1.2;100.0
54314;BME280;50746;52.490;13.320;2023-01-26T04:03:16;101790.0;;;1.3;100.0
54314;BME280;50746;52.490;13.320;2023-01-26T04:04:16;101790.0;;;1.2;100.0
54314;BME280;50746;52.490;13.320;2023-01-26T04:05:16;101800.0;;;1.3;100.0
54314;BME280;50746;52.490;13.320;2023-01-26T04:06:16;101790.0;;;1.2;100.0
54314;BME280;50746;52.490;13.320;2023-01-26T04:08:16;101790.0;;;0.8;100.0
54314;BME280;50746;52.490;13.320;2023-01-26T04:10:16;101790.0;;;0.7;100.0
54314;BME280;50746;52.490;13.320;2023-01-26T04:11:16;101790.0;;;0.8;100.0
54314;BME280;50746;52.490;13.320;2023-01-26T04:12:16;101790.0;;;0.7;100.0
54314;BME280;50746;52.490;13.320;2023-01-26T04:13:16;101780.0;;;1.5;100.0
54314;BME280;50746;52.490;13.320;2023-01-26T04:14:16;101790.0;;;1.3;100.0
54314;BME280;50746;52.490;13.320;2023-01-26T04:15:16;101780.0;;;1.4;100.0
54314;BME280;50746;52.490;13.320;2023-01-26T04:18:16;101780.0;;;1.3;100.0
54314;BME280;50746;52.490;13.320;2023-01-26T04:19:16;101780.0;;;1.0;100.0
54314;BME280;50746;52.490;13.320;2023-01-26T04:20:16;101780.0;;;0.7;100.0
54314;BME280;50746;52.490;13.320;2023-01-26T04:21:16;101770.0;;;0.6;100.0
54314;BME280;50746;52.490;13.320;2023-01-26T04:22:16;101770.0;;;0.7;100.0
54314;BME280;50746;52.490;13.320;2023-01-26T04:24:16;101770.0;;;0.6;100.0
54314;BME280;50746;52.490;13.320;2023-01-26T04:25:19;101770.0;;;0.8;100.0
54314;BME280;50746;52.490;13.320;2023-01-26T04:26:16;101770.0;;;0.9;100.0
54314;BME280;50746;52.490;13.320;2023-01-26T04:27:16;101770.0;;;1.0;100.0
54314;BME280;50746;52.490;13.320;2023-01-26T04:29:16;101760.0;;;1.3;100.0
54314;BME280;50746;52.490;13.320;2023-01-26T04:30:17;101760.0;;;1.4;100.0
54314;BME280;50746;52.490;13.320;2023-01-26T04:31:16;101760.0;;;1.5;100.0
54314;BME280;50746;52.490;13.320;2023-01-26T04:32:16;101760.0;;;1.6;100.0
54314;BME280;50746;52.490;13.320;2023-01-26T04:33:16;101760.0;;;1.7;100.0
54314;BME280;50746;52.490;13.320;2023-01-26T04:34:16;101760.0;;;1.6;100.0
54314;BME280;50746;52.490;13.320;2023-01-26T04:35:16;101760.0;;;1.5;100.0
54314;BME280;50746;52.490;13.320;2023-01-26T04:36:16;101760.0;;;1.4;100.0
54314;BME280;50746;52.490;13.320;2023-01-26T04:37:16;101760.0;;;1.3;100.0
54314;BME280;50746;52.490;13.320;2023-01-26T04:38:16;101770.0;;;0.8;100.0
54314;BME280;50746;52.490;13.320;2023-01-26T04:39:16;101770.0;;;0.7;100.0
54314;BME280;50746;52.490;13.320;2023-01-26T04:40:16;101770.0;;;0.8;100.0
54314;BME280;50746;52.490;13.320;2023-01-26T04:41:16;101760.0;;;1.7;100.0
54314;BME280;50746;52.490;13.320;2023-01-26T04:42:16;101760.0;;;1.9;100.0
54314;BME280;50746;52.490;13.320;2023-01-26T04:43:16;101760.0;;;1.5;100.0
54314;BME280;50746;52.490;13.320;2023-01-26T04:44:16;101760.0;;;1.4;100.0
54314;BME280;50746;52.490;13.320;2023-01-26T04:45:16;101760.0;;;1.2;100.0
54314;BME280;50746;52.490;13.320;2023-01-26T04:46:16;101760.0;;;1.4;100.0
54314;BME280;50746;52.490;13.320;2023-01-26T04:47:16;101760.0;;;1.1;100.0
54314;BME280;50746;52.490;13.320;2023-01-26T04:48:16;101760.0;;;1.5;100.0
54314;BME280;50746;52.490;13.320;2023-01-26T04:49:16;101750.0;;;1.6;100.0
54314;BME280;50746;52.490;13.320;2023-01-26T04:56:19;101760.0;;;1.5;100.0
54314;BME280;50746;52.490;13.320;2023-01-26T04:58:16;101750.0;;;1.6;100.0
54314;BME280;50746;52.490;13.320;2023-01-26T05:00:16;101750.0;;;1.5;100.0
54314;BME280;50746;52.490;13.320;2023-01-26T05:01:16;101750.0;;;1.4;100.0
54314;BME280;50746;52.490;13.320;2023-01-26T05:02:16;101750.0;;;1.5;100.0
54314;BME280;50746;52.490;13.320;2023-01-26T05:03:16;101750.0;;;1.3;100.0
54314;BME280;50746;52.490;13.320;2023-01-26T05:04:16;101740.0;;;1.5;100.0
54314;BME280;50746;52.490;13.320;2023-01-26T05:05:16;101750.0;;;1.6;100.0
54314;BME280;50746;52.490;13.320;2023-01-26T05:06:16;101740.0;;;1.3;100.0
54314;BME280;50746;52.490;13.320;2023-01-26T05:07:16;101740.0;;;1.6;100.0
54314;BME280;50746;52.490;13.320;2023-01-26T05:08:17;101740.0;;;1.7;100.0
54314;BME280;50746;52.490;13.320;2023-01-26T05:09:16;101740.0;;;1.5;100.0
54314;BME280;50746;52.490;13.320;2023-01-26T05:10:16;101740.0;;;1.9;100.0
54314;BME280;50746;52.490;13.320;2023-01-26T05:11:16;101740.0;;;2.1;100.0
54314;BME280;50746;52.490;13.320;2023-01-26T05:12:16;101740.0;;;1.4;100.0
54314;BME280;50746;52.490;13.320;2023-01-26T05:13:16;101730.0;;;1.1;100.0
54314;BME280;50746;52.490;13.320;2023-01-26T05:14:16;101740.0;;;1.2;100.0
54314;BME280;50746;52.490;13.320;2023-01-26T05:15:16;101740.0;;;0.8;100.0
54314;BME280;50746;52.490;13.320;2023-01-26T05:16:16;101740.0;;;1.2;100.0
54314;BME280;50746;52.490;13.320;2023-01-26T05:17:16;101740.0;;;1.4;100.0
54314;BME280;50746;52.490;13.320;2023-01-26T05:18:16;101750.0;;;1.1;100.0
54314;BME280;50746;52.490;13.320;2023-01-26T05:19:16;101750.0;;;1.0;100.0
54314;BME280;50746;52.490;13.320;2023-01-26T05:20:16;101750.0;;;0.9;100.0
54314;BME280;50746;52.490;13.320;2023-01-26T05:21:16;101740.0;;;1.1;100.0
54314;BME280;50746;52.490;13.320;2023-01-26T05:22:16;101740.0;;;1.4;100.0
54314;BME280;50746;52.490;13.320;2023-01-26T05:24:16;101740.0;;;1.5;100.0
54314;BME280;50746;52.490;13.320;2023-01-26T05:26:16;101740.0;;;1.6;100.0
54314;BME280;50746;52.490;13.320;2023-01-26T05:27:16;101740.0;;;1.7;100.0
54314;BME280;50746;52.490;13.320;2023-01-26T05:29:16;101740.0;;;1.6;100.0
54314;BME280;50746;52.490;13.320;2023-01-26T05:30:16;101740.0;;;1.5;100.0
54314;BME280;50746;52.490;13.320;2023-01-26T05:31:16;101740.0;;;1.4;100.0
54314;BME280;50746;52.490;13.320;2023-01-26T05:32:16;101740.0;;;1.5;100.0
54314;BME280;50746;52.490;13.320;2023-01-26T05:33:16;101740.0;;;1.4;100.0
54314;BME280;50746;52.490;13.320;2023-01-26T05:34:16;101750.0;;;0.9;100.0
54314;BME280;50746;52.490;13.320;2023-01-26T05:35:16;101750.0;;;0.6;100.0
54314;BME280;50746;52.490;13.320;2023-01-26T05:37:16;101740.0;;;0.7;100.0
54314;BME280;50746;52.490;13.320;2023-01-26T05:38:16;101750.0;;;1.0;100.0
54314;BME280;50746;52.490;13.320;2023-01-26T05:39:16;101750.0;;;0.7;100.0
54314;BME280;50746;52.490;13.320;2023-01-26T05:40:16;101750.0;;;0.4;100.0
54314;BME280;50746;52.490;13.320;2023-01-26T05:41:16;101750.0;;;0.5;100.0
54314;BME280;50746;52.490;13.320;2023-01-26T05:43:16;101750.0;;;0.7;100.0
54314;BME280;50746;52.490;13.320;2023-01-26T05:45:16;101750.0;;;0.6;100.0
54314;BME280;50746;52.490;13.320;2023-01-26T05:48:16;101750.0;;;0.9;100.0
54314;BME280;50746;52.490;13.320;2023-01-26T05:49:16;101750.0;;;0.8;100.0
54314;BME280;50746;52.490;13.320;2023-01-26T05:51:16;101750.0;;;1.0;100.0
54314;BME280;50746;52.490;13.320;2023-01-26T05:55:16;101760.0;;;1.2;100.0
54314;BME280;50746;52.490;13.320;2023-01-26T05:56:16;101760.0;;;0.9;100.0
54314;BME280;50746;52.490;13.320;2023-01-26T05:59:16;101750.0;;;0.8;100.0
54314;BME280;50746;52.490;13.320;2023-01-26T06:02:16;101760.0;;;0.6;100.0
54314;BME280;50746;52.490;13.320;2023-01-26T06:03:16;101760.0;;;0.8;100.0
54314;BME280;50746;52.490;13.320;2023-01-26T06:04:16;101760.0;;;0.7;100.0
54314;BME280;50746;52.490;13.320;2023-01-26T06:06:16;101760.0;;;0.8;100.0
54314;BME280;50746;52.490;13.320;2023-01-26T06:07:16;101760.0;;;0.7;100.0
54314;BME280;50746;52.490;13.320;2023-01-26T06:08:16;101760.0;;;0.6;100.0
54314;BME280;50746;52.490;13.320;2023-01-26T06:09:16;101760.0;;;0.7;100.0
54314;BME280;50746;52.490;13.320;2023-01-26T06:10:16;101760.0;;;0.4;100.0
54314;BME280;50746;52.490;13.320;2023-01-26T06:11:16;101760.0;;;0.8;100.0
54314;BME280;50746;52.490;13.320;2023-01-26T06:12:19;101760.0;;;0.7;100.0
54314;BME280;50746;52.490;13.320;2023-01-26T06:13:16;101760.0;;;0.9;100.0
54314;BME280;50746;52.490;13.320;2023-01-26T06:15:16;101760.0;;;0.4;100.0
54314;BME280;50746;52.490;13.320;2023-01-26T06:16:16;101750.0;;;0.5;100.0
54314;BME280;50746;52.490;13.320;2023-01-26T06:19:16;101760.0;;;0.3;100.0
54314;BME280;50746;52.490;13.320;2023-01-26T06:21:16;101760.0;;;0.2;100.0
54314;BME280;50746;52.490;13.320;2023-01-26T06:22:16;101760.0;;;0.4;100.0
54314;BME280;50746;52.490;13.320;2023-01-26T06:23:16;101760.0;;;0.5;100.0
54314;BME280;50746;52.490;13.320;2023-01-26T06:24:16;101770.0;;;0.4;100.0
54314;BME280;50746;52.490;13.320;2023-01-26T06:34:16;101770.0;;;0.3;100.0
54314;BME280;50746;52.490;13.320;2023-01-26T06:35:16;101770.0;;;0.4;100.0
54314;BME280;50746;52.490;13.320;2023-01-26T06:40:16;101750.0;;;0.5;100.0
54314;BME280;50746;52.490;13.320;2023-01-26T06:41:16;101760.0;;;0.6;100.0
54314;BME280;50746;52.490;13.320;2023-01-26T06:45:16;101760.0;;;0.5;100.0
54314;BME280;50746;52.490;13.320;2023-01-26T06:46:16;101760.0;;;0.4;100.0
54314;BME280;50746;52.490;13.320;2023-01-26T06:47:16;101760.0;;;0.6;100.0
54314;BME280;50746;52.490;13.320;2023-01-26T06:48:16;101760.0;;;0.5;100.0
54314;BME280;50746;52.490;13.320;2023-01-26T06:49:16;101760.0;;;0.6;100.0
54314;BME280;50746;52.490;13.320;2023-01-26T06:55:19;101760.0;;;0.5;100.0
54314;BME280;50746;52.490;13.320;2023-01-26T06:57:16;101770.0;;;0.3;100.0
54314;BME280;50746;52.490;13.320;2023-01-26T06:58:16;101770.0;;;0.2;100.0
54314;BME280;50746;52.490;13.320;2023-01-26T07:04:16;101760.0;;;0.1;100.0
54314;BME280;50746;52.490;13.320;2023-01-26T07:06:16;101760.0;;;0.7;100.0
54314;BME280;50746;52.490;13.320;2023-01-26T07:07:16;101760.0;;;0.3;100.0
54314;BME280;50746;52.490;13.320;2023-01-26T07:08:16;101760.0;;;0.0;100.0
54314;BME280;50746;52.490;13.320;2023-01-26T07:09:16;101760.0;;;0.1;100.0
54314;BME280;50746;52.490;13.320;2023-01-26T07:10:16;101760.0;;;-0.0;100.0
54314;BME280;50746;52.490;13.320;2023-01-26T07:11:16;101760.0;;;-0.1;100.0
54314;BME280;50746;52.490;13.320;2023-01-26T07:12:16;101760.0;;;-0.0;100.0
54314;BME280;50746;52.490;13.320;2023-01-26T07:13:16;101760.0;;;-0.1;100.0
54314;BME280;50746;52.490;13.320;2023-01-26T07:15:16;101760.0;;;-0.0;100.0
54314;BME280;50746;52.490;13.320;2023-01-26T07:16:16;101760.0;;;-0.1;100.0
54314;BME280;50746;52.490;13.320;2023-01-26T07:17:16;101760.0;;;0.0;100.0
54314;BME280;50746;52.490;13.320;2023-01-26T07:19:16;101760.0;;;-0.0;100.0
54314;BME280;50746;52.490;13.320;2023-01-26T07:21:17;101770.0;;;0.0;100.0
54314;BME280;50746;52.490;13.320;2023-01-26T07:22:16;101770.0;;;0.1;100.0
54314;BME280;50746;52.490;13.320;2023-01-26T07:24:16;101770.0;;;0.2;100.0
54314;BME280;50746;52.490;13.320;2023-01-26T07:25:16;101770.0;;;0.1;100.0
54314;BME280;50746;52.490;13.320;2023-01-26T07:27:16;101770.0;;;0.2;100.0
54314;BME280;50746;52.490;13.320;2023-01-26T07:29:16;101770.0;;;0.7;100.0
54314;BME280;50746;52.490;13.320;2023-01-26T07:30:16;101770.0;;;0.6;100.0
54314;BME280;50746;52.490;13.320;2023-01-26T07:32:16;101770.0;;;0.3;100.0
54314;BME280;50746;52.490;13.320;2023-01-26T07:35:16;101770.0;;;0.4;100.0
54314;BME280;50746;52.490;13.320;2023-01-26T07:37:16;101770.0;;;0.1;100.0
54314;BME280;50746;52.490;13.320;2023-01-26T07:39:16;101770.0;;;0.2;100.0
54314;BME280;50746;52.490;13.320;2023-01-26T07:40:16;101770.0;;;0.3;100.0
54314;BME280;50746;52.490;13.320;2023-01-26T07:42:16;101770.0;;;1.1;100.0